sensor_id;sensor_type;location;lat;lon;timestamp;P1;durP1;ratioP1;P2;durP2;ratioP2
76896;SDS011;65856;52.178;21.176;2023-06-22T00:00:58;23.20;;;20.70;;
76896;SDS011;65856;52.178;21.176;2023-06-22T00:03:25;24.50;;;22.00;;
76896;SDS011;65856;52.178;21.176;2023-06-22T00:05:51;24.90;;;21.90;;
76896;SDS011;65856;52.178;21.176;2023-06-22T00:08:18;21.90;;;19.70;;
76896;SDS011;65856;52.178;21.176;2023-06-22T00:10:45;22.00;;;19.90;;
76896;SDS011;65856;52.178;21.176;2023-06-22T00:13:12;23.40;;;19.30;;
76896;SDS011;65856;52.178;21.176;2023-06-22T00:15:39;22.70;;;20.30;;
76896;SDS011;65856;52.178;21.176;2023-06-22T00:18:07;18.70;;;16.90;;
76896;SDS011;65856;52.178;21.176;2023-06-22T00:20:34;21.90;;;19.50;;
76896;SDS011;65856;52.178;21.176;2023-06-22T00:23:06;22.60;;;20.30;;
76896;SDS011;65856;52.178;21.176;2023-06-22T00:25:35;21.50;;;19.30;;
76896;SDS011;65856;52.178;21.176;2023-06-22T00:28:03;20.90;;;18.50;;
76896;SDS011;65856;52.178;21.176;2023-06-22T00:30:30;20.90;;;18.70;;
76896;SDS011;65856;52.178;21.176;2023-06-22T00:32:57;22.60;;;20.30;;
76896;SDS011;65856;52.178;21.176;2023-06-22T00:35:23;21.90;;;19.60;;
76896;SDS011;65856;52.178;21.176;2023-06-22T00:37:57;20.60;;;18.50;;
76896;SDS011;65856;52.178;21.176;2023-06-22T00:40:28;21.40;;;19.10;;
76896;SDS011;65856;52.178;21.176;2023-06-22T00:42:55;22.00;;;19.60;;
76896;SDS011;65856;52.178;21.176;2023-06-22T00:45:23;20.30;;;18.30;;
76896;SDS011;65856;52.178;21.176;2023-06-22T00:47:53;24.60;;;21.50;;
76896;SDS011;65856;52.178;21.176;2023-06-22T00:50:23;24.20;;;21.70;;
76896;SDS011;65856;52.178;21.176;2023-06-22T00:52:53;21.40;;;19.20;;
76896;SDS011;65856;52.178;21.176;2023-06-22T00:55:22;21.30;;;19.10;;
76896;SDS011;65856;52.178;21.176;2023-06-22T00:57:49;21.60;;;19.30;;
76896;SDS011;65856;52.178;21.176;2023-06-22T01:00:15;21.70;;;19.40;;
76896;SDS011;65856;52.178;21.176;2023-06-22T01:02:46;22.50;;;20.20;;
76896;SDS011;65856;52.178;21.176;2023-06-22T01:05:18;21.80;;;19.40;;
76896;SDS011;65856;52.178;21.176;2023-06-22T01:07:56;21.40;;;19.20;;
76896;SDS011;65856;52.178;21.176;2023-06-22T01:10:51;22.20;;;19.90;;
76896;SDS011;65856;52.178;21.176;2023-06-22T01:13:39;22.00;;;19.50;;
76896;SDS011;65856;52.178;21.176;2023-06-22T01:16:29;23.50;;;20.60;;
76896;SDS011;65856;52.178;21.176;2023-06-22T01:19:00;22.10;;;19.80;;
76896;SDS011;65856;52.178;21.176;2023-06-22T01:21:37;22.20;;;19.80;;
76896;SDS011;65856;52.178;21.176;2023-06-22T01:27:12;21.40;;;19.10;;
76896;SDS011;65856;52.178;21.176;2023-06-22T01:29:59;20.90;;;18.70;;
76896;SDS011;65856;52.178;21.176;2023-06-22T01:32:29;20.40;;;18.30;;
76896;SDS011;65856;52.178;21.176;2023-06-22T01:35:00;20.80;;;18.70;;
76896;SDS011;65856;52.178;21.176;2023-06-22T01:39:58;21.30;;;19.10;;
76896;SDS011;65856;52.178;21.176;2023-06-22T01:42:24;23.40;;;18.80;;
76896;SDS011;65856;52.178;21.176;2023-06-22T01:44:54;20.40;;;18.10;;
76896;SDS011;65856;52.178;21.176;2023-06-22T01:47:24;20.90;;;18.70;;
76896;SDS011;65856;52.178;21.176;2023-06-22T01:49:50;23.20;;;20.80;;
76896;SDS011;65856;52.178;21.176;2023-06-22T01:52:17;23.40;;;20.90;;
76896;SDS011;65856;52.178;21.176;2023-06-22T01:54:44;22.80;;;19.30;;
76896;SDS011;65856;52.178;21.176;2023-06-22T01:57:10;18.90;;;17.00;;
76896;SDS011;65856;52.178;21.176;2023-06-22T02:02:39;22.80;;;20.40;;
76896;SDS011;65856;52.178;21.176;2023-06-22T02:05:19;21.40;;;19.10;;
76896;SDS011;65856;52.178;21.176;2023-06-22T02:07:59;19.10;;;17.00;;
76896;SDS011;65856;52.178;21.176;2023-06-22T02:10:37;19.80;;;17.80;;
76896;SDS011;65856;52.178;21.176;2023-06-22T02:13:07;22.00;;;19.70;;
76896;SDS011;65856;52.178;21.176;2023-06-22T02:15:36;19.70;;;17.70;;
76896;SDS011;65856;52.178;21.176;2023-06-22T02:18:02;20.00;;;18.00;;
76896;SDS011;65856;52.178;21.176;2023-06-22T02:20:28;19.30;;;17.40;;
76896;SDS011;65856;52.178;21.176;2023-06-22T02:22:54;19.90;;;17.90;;
76896;SDS011;65856;52.178;21.176;2023-06-22T02:25:19;19.60;;;17.60;;
76896;SDS011;65856;52.178;21.176;2023-06-22T02:27:46;19.60;;;17.60;;
76896;SDS011;65856;52.178;21.176;2023-06-22T02:30:12;21.00;;;18.70;;
76896;SDS011;65856;52.178;21.176;2023-06-22T02:32:40;22.80;;;18.40;;
76896;SDS011;65856;52.178;21.176;2023-06-22T02:35:08;21.50;;;18.30;;
76896;SDS011;65856;52.178;21.176;2023-06-22T02:37:38;22.80;;;19.50;;
76896;SDS011;65856;52.178;21.176;2023-06-22T02:40:07;20.60;;;17.90;;
76896;SDS011;65856;52.178;21.176;2023-06-22T02:42:37;21.40;;;18.00;;
76896;SDS011;65856;52.178;21.176;2023-06-22T02:45:05;20.10;;;18.00;;
76896;SDS011;65856;52.178;21.176;2023-06-22T02:47:31;20.90;;;18.80;;
76896;SDS011;65856;52.178;21.176;2023-06-22T02:49:57;21.80;;;19.50;;
76896;SDS011;65856;52.178;21.176;2023-06-22T02:52:22;21.20;;;19.00;;
76896;SDS011;65856;52.178;21.176;2023-06-22T02:54:48;21.70;;;19.40;;
76896;SDS011;65856;52.178;21.176;2023-06-22T02:57:13;21.80;;;19.50;;
76896;SDS011;65856;52.178;21.176;2023-06-22T02:59:40;24.40;;;20.60;;
76896;SDS011;65856;52.178;21.176;2023-06-22T03:02:07;24.50;;;21.20;;
76896;SDS011;65856;52.178;21.176;2023-06-22T03:04:34;22.90;;;19.90;;
76896;SDS011;65856;52.178;21.176;2023-06-22T03:07:01;21.20;;;19.10;;
76896;SDS011;65856;52.178;21.176;2023-06-22T03:09:29;22.90;;;20.50;;
76896;SDS011;65856;52.178;21.176;2023-06-22T03:11:55;22.80;;;20.50;;
76896;SDS011;65856;52.178;21.176;2023-06-22T03:14:21;23.20;;;20.70;;
76896;SDS011;65856;52.178;21.176;2023-06-22T03:16:47;23.40;;;20.90;;
76896;SDS011;65856;52.178;21.176;2023-06-22T03:19:13;26.40;;;23.00;;
76896;SDS011;65856;52.178;21.176;2023-06-22T03:21:39;24.60;;;22.00;;
76896;SDS011;65856;52.178;21.176;2023-06-22T03:24:06;25.40;;;20.90;;
76896;SDS011;65856;52.178;21.176;2023-06-22T03:26:34;22.80;;;20.40;;
76896;SDS011;65856;52.178;21.176;2023-06-22T03:29:00;22.60;;;20.00;;
76896;SDS011;65856;52.178;21.176;2023-06-22T03:31:25;23.20;;;20.60;;
76896;SDS011;65856;52.178;21.176;2023-06-22T03:33:51;23.40;;;20.50;;
76896;SDS011;65856;52.178;21.176;2023-06-22T03:36:17;25.00;;;21.80;;
76896;SDS011;65856;52.178;21.176;2023-06-22T03:38:48;23.80;;;21.30;;
76896;SDS011;65856;52.178;21.176;2023-06-22T03:41:15;24.80;;;22.00;;
76896;SDS011;65856;52.178;21.176;2023-06-22T03:43:41;28.20;;;24.50;;
76896;SDS011;65856;52.178;21.176;2023-06-22T03:46:06;26.60;;;23.80;;
76896;SDS011;65856;52.178;21.176;2023-06-22T03:48:32;30.40;;;24.70;;
76896;SDS011;65856;52.178;21.176;2023-06-22T03:51:01;26.50;;;23.70;;
76896;SDS011;65856;52.178;21.176;2023-06-22T03:53:28;29.20;;;25.90;;
76896;SDS011;65856;52.178;21.176;2023-06-22T03:55:55;29.50;;;25.30;;
76896;SDS011;65856;52.178;21.176;2023-06-22T03:58:21;30.70;;;26.30;;
76896;SDS011;65856;52.178;21.176;2023-06-22T04:00:52;34.80;;;26.70;;
76896;SDS011;65856;52.178;21.176;2023-06-22T04:03:18;31.50;;;25.90;;
76896;SDS011;65856;52.178;21.176;2023-06-22T04:05:44;31.20;;;27.00;;
76896;SDS011;65856;52.178;21.176;2023-06-22T04:08:12;32.10;;;27.40;;
76896;SDS011;65856;52.178;21.176;2023-06-22T04:10:38;31.50;;;27.40;;
76896;SDS011;65856;52.178;21.176;2023-06-22T04:13:04;33.50;;;27.90;;
76896;SDS011;65856;52.178;21.176;2023-06-22T04:15:30;32.90;;;28.20;;
76896;SDS011;65856;52.178;21.176;2023-06-22T04:17:56;33.10;;;28.40;;
76896;SDS011;65856;52.178;21.176;2023-06-22T04:20:22;32.70;;;27.70;;
76896;SDS011;65856;52.178;21.176;2023-06-22T04:22:54;33.00;;;27.50;;
76896;SDS011;65856;52.178;21.176;2023-06-22T04:25:20;34.70;;;28.40;;
76896;SDS011;65856;52.178;21.176;2023-06-22T04:27:47;31.50;;;27.30;;
76896;SDS011;65856;52.178;21.176;2023-06-22T04:30:13;35.20;;;27.70;;
76896;SDS011;65856;52.178;21.176;2023-06-22T04:32:43;31.20;;;26.20;;
76896;SDS011;65856;52.178;21.176;2023-06-22T04:35:10;32.90;;;27.70;;
76896;SDS011;65856;52.178;21.176;2023-06-22T04:37:36;33.30;;;27.40;;
76896;SDS011;65856;52.178;21.176;2023-06-22T04:40:04;32.90;;;27.40;;
76896;SDS011;65856;52.178;21.176;2023-06-22T04:42:34;31.60;;;26.30;;
76896;SDS011;65856;52.178;21.176;2023-06-22T04:45:01;31.00;;;27.00;;
76896;SDS011;65856;52.178;21.176;2023-06-22T04:47:27;31.20;;;26.20;;
76896;SDS011;65856;52.178;21.176;2023-06-22T04:49:53;32.50;;;25.00;;
76896;SDS011;65856;52.178;21.176;2023-06-22T04:52:18;33.30;;;26.40;;
76896;SDS011;65856;52.178;21.176;2023-06-22T04:54:45;31.20;;;26.00;;
76896;SDS011;65856;52.178;21.176;2023-06-22T04:57:13;30.80;;;25.90;;
76896;SDS011;65856;52.178;21.176;2023-06-22T04:59:40;32.50;;;26.60;;
76896;SDS011;65856;52.178;21.176;2023-06-22T05:02:07;30.30;;;25.70;;
76896;SDS011;65856;52.178;21.176;2023-06-22T05:04:34;31.10;;;26.20;;
76896;SDS011;65856;52.178;21.176;2023-06-22T05:07:06;30.50;;;25.10;;
76896;SDS011;65856;52.178;21.176;2023-06-22T05:09:32;31.80;;;25.60;;
76896;SDS011;65856;52.178;21.176;2023-06-22T05:11:59;30.40;;;24.80;;
76896;SDS011;65856;52.178;21.176;2023-06-22T05:14:27;29.90;;;24.50;;
76896;SDS011;65856;52.178;21.176;2023-06-22T05:16:52;32.40;;;25.00;;
76896;SDS011;65856;52.178;21.176;2023-06-22T05:19:18;29.20;;;24.30;;
76896;SDS011;65856;52.178;21.176;2023-06-22T05:21:43;29.20;;;24.30;;
76896;SDS011;65856;52.178;21.176;2023-06-22T05:24:09;31.70;;;25.60;;
76896;SDS011;65856;52.178;21.176;2023-06-22T05:26:35;32.20;;;25.20;;
76896;SDS011;65856;52.178;21.176;2023-06-22T05:29:02;30.80;;;23.70;;
76896;SDS011;65856;52.178;21.176;2023-06-22T05:31:29;31.50;;;24.90;;
76896;SDS011;65856;52.178;21.176;2023-06-22T05:33:55;31.80;;;25.70;;
76896;SDS011;65856;52.178;21.176;2023-06-22T05:36:21;29.50;;;24.50;;
76896;SDS011;65856;52.178;21.176;2023-06-22T05:38:51;29.10;;;24.90;;
76896;SDS011;65856;52.178;21.176;2023-06-22T05:41:18;29.10;;;24.20;;
76896;SDS011;65856;52.178;21.176;2023-06-22T05:43:43;30.50;;;25.40;;
76896;SDS011;65856;52.178;21.176;2023-06-22T05:46:09;30.20;;;25.00;;
76896;SDS011;65856;52.178;21.176;2023-06-22T05:48:34;31.30;;;25.80;;
76896;SDS011;65856;52.178;21.176;2023-06-22T05:51:00;32.40;;;26.00;;
76896;SDS011;65856;52.178;21.176;2023-06-22T05:53:25;33.40;;;25.10;;
76896;SDS011;65856;52.178;21.176;2023-06-22T05:55:51;30.70;;;24.90;;
76896;SDS011;65856;52.178;21.176;2023-06-22T05:58:17;29.20;;;24.50;;
76896;SDS011;65856;52.178;21.176;2023-06-22T06:00:42;31.20;;;25.60;;
76896;SDS011;65856;52.178;21.176;2023-06-22T06:03:09;30.70;;;24.20;;
76896;SDS011;65856;52.178;21.176;2023-06-22T06:05:36;30.40;;;25.20;;
76896;SDS011;65856;52.178;21.176;2023-06-22T06:08:04;30.70;;;24.50;;
76896;SDS011;65856;52.178;21.176;2023-06-22T06:10:32;31.50;;;24.90;;
76896;SDS011;65856;52.178;21.176;2023-06-22T06:12:59;31.30;;;25.90;;
76896;SDS011;65856;52.178;21.176;2023-06-22T06:15:27;32.20;;;26.00;;
76896;SDS011;65856;52.178;21.176;2023-06-22T06:17:53;33.00;;;27.00;;
76896;SDS011;65856;52.178;21.176;2023-06-22T06:20:23;33.80;;;27.60;;
76896;SDS011;65856;52.178;21.176;2023-06-22T06:22:51;34.80;;;27.10;;
76896;SDS011;65856;52.178;21.176;2023-06-22T06:25:17;31.70;;;26.30;;
76896;SDS011;65856;52.178;21.176;2023-06-22T06:27:46;33.70;;;26.10;;
76896;SDS011;65856;52.178;21.176;2023-06-22T06:30:14;33.80;;;26.20;;
76896;SDS011;65856;52.178;21.176;2023-06-22T06:32:42;33.20;;;25.70;;
76896;SDS011;65856;52.178;21.176;2023-06-22T06:35:10;32.80;;;25.40;;
76896;SDS011;65856;52.178;21.176;2023-06-22T06:37:42;30.00;;;24.00;;
76896;SDS011;65856;52.178;21.176;2023-06-22T06:40:11;28.80;;;22.80;;
76896;SDS011;65856;52.178;21.176;2023-06-22T06:42:42;27.10;;;22.40;;
76896;SDS011;65856;52.178;21.176;2023-06-22T06:47:37;26.00;;;20.80;;
76896;SDS011;65856;52.178;21.176;2023-06-22T06:50:04;27.30;;;21.60;;
76896;SDS011;65856;52.178;21.176;2023-06-22T06:52:31;27.10;;;21.70;;
76896;SDS011;65856;52.178;21.176;2023-06-22T06:54:57;25.00;;;21.20;;
76896;SDS011;65856;52.178;21.176;2023-06-22T06:57:23;25.60;;;21.40;;
76896;SDS011;65856;52.178;21.176;2023-06-22T06:59:49;23.60;;;20.30;;
76896;SDS011;65856;52.178;21.176;2023-06-22T07:02:15;23.80;;;20.50;;
76896;SDS011;65856;52.178;21.176;2023-06-22T07:04:41;24.00;;;19.40;;
76896;SDS011;65856;52.178;21.176;2023-06-22T07:07:07;22.90;;;19.30;;
76896;SDS011;65856;52.178;21.176;2023-06-22T07:09:32;21.20;;;18.60;;
76896;SDS011;65856;52.178;21.176;2023-06-22T07:11:58;20.70;;;18.40;;
76896;SDS011;65856;52.178;21.176;2023-06-22T07:14:23;23.10;;;18.60;;
76896;SDS011;65856;52.178;21.176;2023-06-22T07:16:49;28.00;;;19.10;;
76896;SDS011;65856;52.178;21.176;2023-06-22T07:19:14;27.30;;;18.40;;
76896;SDS011;65856;52.178;21.176;2023-06-22T07:21:40;20.80;;;17.70;;
76896;SDS011;65856;52.178;21.176;2023-06-22T07:24:06;21.00;;;17.80;;
76896;SDS011;65856;52.178;21.176;2023-06-22T07:26:32;21.10;;;18.10;;
76896;SDS011;65856;52.178;21.176;2023-06-22T07:28:59;21.20;;;17.20;;
76896;SDS011;65856;52.178;21.176;2023-06-22T07:31:25;22.00;;;16.70;;
76896;SDS011;65856;52.178;21.176;2023-06-22T07:33:51;19.40;;;17.00;;
76896;SDS011;65856;52.178;21.176;2023-06-22T07:36:17;19.00;;;16.70;;
76896;SDS011;65856;52.178;21.176;2023-06-22T07:38:43;18.30;;;16.30;;
76896;SDS011;65856;52.178;21.176;2023-06-22T07:41:08;19.60;;;15.70;;
76896;SDS011;65856;52.178;21.176;2023-06-22T07:43:34;17.70;;;14.50;;
76896;SDS011;65856;52.178;21.176;2023-06-22T07:46:05;15.50;;;13.70;;
76896;SDS011;65856;52.178;21.176;2023-06-22T07:48:31;19.70;;;13.60;;
76896;SDS011;65856;52.178;21.176;2023-06-22T07:50:57;18.30;;;13.70;;
76896;SDS011;65856;52.178;21.176;2023-06-22T07:53:23;19.00;;;13.60;;
76896;SDS011;65856;52.178;21.176;2023-06-22T07:55:49;18.10;;;13.10;;
76896;SDS011;65856;52.178;21.176;2023-06-22T07:58:16;14.40;;;12.60;;
76896;SDS011;65856;52.178;21.176;2023-06-22T08:00:43;17.00;;;12.20;;
76896;SDS011;65856;52.178;21.176;2023-06-22T08:03:09;13.90;;;12.30;;
76896;SDS011;65856;52.178;21.176;2023-06-22T08:05:35;12.20;;;10.50;;
76896;SDS011;65856;52.178;21.176;2023-06-22T08:08:00;13.50;;;10.40;;
76896;SDS011;65856;52.178;21.176;2023-06-22T08:10:26;12.70;;;9.90;;
76896;SDS011;65856;52.178;21.176;2023-06-22T08:12:51;11.00;;;9.40;;
76896;SDS011;65856;52.178;21.176;2023-06-22T08:15:17;10.50;;;9.30;;
76896;SDS011;65856;52.178;21.176;2023-06-22T08:17:44;11.40;;;9.30;;
76896;SDS011;65856;52.178;21.176;2023-06-22T08:20:11;12.30;;;9.20;;
76896;SDS011;65856;52.178;21.176;2023-06-22T08:22:37;11.80;;;8.90;;
76896;SDS011;65856;52.178;21.176;2023-06-22T08:25:04;10.80;;;8.40;;
76896;SDS011;65856;52.178;21.176;2023-06-22T08:27:31;12.00;;;8.10;;
76896;SDS011;65856;52.178;21.176;2023-06-22T08:30:00;11.80;;;6.90;;
76896;SDS011;65856;52.178;21.176;2023-06-22T08:32:27;8.90;;;6.10;;
76896;SDS011;65856;52.178;21.176;2023-06-22T08:34:54;7.40;;;6.30;;
76896;SDS011;65856;52.178;21.176;2023-06-22T08:37:21;10.00;;;6.20;;
76896;SDS011;65856;52.178;21.176;2023-06-22T08:39:56;9.00;;;6.20;;
76896;SDS011;65856;52.178;21.176;2023-06-22T08:42:23;8.30;;;5.80;;
76896;SDS011;65856;52.178;21.176;2023-06-22T08:44:50;8.40;;;5.30;;
76896;SDS011;65856;52.178;21.176;2023-06-22T08:47:15;10.00;;;5.50;;
76896;SDS011;65856;52.178;21.176;2023-06-22T08:49:41;7.40;;;5.70;;
76896;SDS011;65856;52.178;21.176;2023-06-22T08:52:06;10.00;;;6.40;;
76896;SDS011;65856;52.178;21.176;2023-06-22T08:54:33;6.80;;;5.50;;
76896;SDS011;65856;52.178;21.176;2023-06-22T08:56:59;6.20;;;5.30;;
76896;SDS011;65856;52.178;21.176;2023-06-22T08:59:28;7.10;;;5.70;;
76896;SDS011;65856;52.178;21.176;2023-06-22T09:01:54;8.30;;;5.60;;
76896;SDS011;65856;52.178;21.176;2023-06-22T09:04:19;6.30;;;5.60;;
76896;SDS011;65856;52.178;21.176;2023-06-22T09:06:47;6.00;;;4.90;;
76896;SDS011;65856;52.178;21.176;2023-06-22T09:09:15;6.60;;;4.90;;
76896;SDS011;65856;52.178;21.176;2023-06-22T09:11:42;9.40;;;5.30;;
76896;SDS011;65856;52.178;21.176;2023-06-22T09:14:08;9.10;;;5.00;;
76896;SDS011;65856;52.178;21.176;2023-06-22T09:16:34;7.40;;;5.10;;
76896;SDS011;65856;52.178;21.176;2023-06-22T09:19:00;9.20;;;4.80;;
76896;SDS011;65856;52.178;21.176;2023-06-22T09:21:26;9.60;;;4.60;;
76896;SDS011;65856;52.178;21.176;2023-06-22T09:23:51;6.30;;;4.00;;
76896;SDS011;65856;52.178;21.176;2023-06-22T09:26:18;5.00;;;4.20;;
76896;SDS011;65856;52.178;21.176;2023-06-22T09:28:44;5.10;;;4.10;;
76896;SDS011;65856;52.178;21.176;2023-06-22T09:31:09;8.90;;;4.00;;
76896;SDS011;65856;52.178;21.176;2023-06-22T09:33:36;6.00;;;4.10;;
76896;SDS011;65856;52.178;21.176;2023-06-22T09:36:05;5.30;;;3.90;;
76896;SDS011;65856;52.178;21.176;2023-06-22T09:38:37;8.20;;;4.20;;
76896;SDS011;65856;52.178;21.176;2023-06-22T09:41:03;8.70;;;4.20;;
76896;SDS011;65856;52.178;21.176;2023-06-22T09:43:31;6.90;;;3.80;;
76896;SDS011;65856;52.178;21.176;2023-06-22T09:46:00;5.10;;;3.70;;
76896;SDS011;65856;52.178;21.176;2023-06-22T09:48:26;6.10;;;4.10;;
76896;SDS011;65856;52.178;21.176;2023-06-22T09:50:52;4.80;;;3.80;;
76896;SDS011;65856;52.178;21.176;2023-06-22T09:53:17;5.90;;;3.60;;
76896;SDS011;65856;52.178;21.176;2023-06-22T09:55:43;5.70;;;3.90;;
76896;SDS011;65856;52.178;21.176;2023-06-22T09:58:08;4.70;;;3.30;;
76896;SDS011;65856;52.178;21.176;2023-06-22T10:00:34;5.70;;;3.20;;
76896;SDS011;65856;52.178;21.176;2023-06-22T10:03:00;6.70;;;3.20;;
76896;SDS011;65856;52.178;21.176;2023-06-22T10:05:25;4.80;;;3.20;;
76896;SDS011;65856;52.178;21.176;2023-06-22T10:07:51;5.60;;;3.50;;
76896;SDS011;65856;52.178;21.176;2023-06-22T10:10:16;4.00;;;2.80;;
76896;SDS011;65856;52.178;21.176;2023-06-22T10:12:46;5.60;;;2.90;;
76896;SDS011;65856;52.178;21.176;2023-06-22T10:15:14;3.80;;;3.00;;
76896;SDS011;65856;52.178;21.176;2023-06-22T10:17:40;4.00;;;3.10;;
76896;SDS011;65856;52.178;21.176;2023-06-22T10:20:06;5.50;;;3.10;;
76896;SDS011;65856;52.178;21.176;2023-06-22T10:22:44;3.50;;;2.80;;
76896;SDS011;65856;52.178;21.176;2023-06-22T10:25:11;3.80;;;2.60;;
76896;SDS011;65856;52.178;21.176;2023-06-22T10:27:38;8.30;;;3.10;;
76896;SDS011;65856;52.178;21.176;2023-06-22T10:30:11;5.80;;;2.90;;
76896;SDS011;65856;52.178;21.176;2023-06-22T10:35:05;5.40;;;3.30;;
76896;SDS011;65856;52.178;21.176;2023-06-22T10:37:31;4.60;;;3.00;;
76896;SDS011;65856;52.178;21.176;2023-06-22T10:39:57;10.30;;;3.70;;
76896;SDS011;65856;52.178;21.176;2023-06-22T10:42:22;7.70;;;3.90;;
76896;SDS011;65856;52.178;21.176;2023-06-22T10:44:48;6.20;;;3.80;;
76896;SDS011;65856;52.178;21.176;2023-06-22T10:47:13;11.30;;;5.70;;
76896;SDS011;65856;52.178;21.176;2023-06-22T10:49:39;6.40;;;3.40;;
76896;SDS011;65856;52.178;21.176;2023-06-22T10:52:08;4.90;;;3.40;;
76896;SDS011;65856;52.178;21.176;2023-06-22T10:54:35;4.40;;;3.30;;
76896;SDS011;65856;52.178;21.176;2023-06-22T10:57:02;4.90;;;3.30;;
76896;SDS011;65856;52.178;21.176;2023-06-22T10:59:28;4.30;;;3.40;;
76896;SDS011;65856;52.178;21.176;2023-06-22T11:01:57;6.60;;;3.40;;
76896;SDS011;65856;52.178;21.176;2023-06-22T11:04:24;5.10;;;3.30;;
76896;SDS011;65856;52.178;21.176;2023-06-22T11:06:50;7.00;;;3.50;;
76896;SDS011;65856;52.178;21.176;2023-06-22T11:09:16;8.70;;;3.70;;
76896;SDS011;65856;52.178;21.176;2023-06-22T11:11:46;3.90;;;3.40;;
76896;SDS011;65856;52.178;21.176;2023-06-22T11:14:13;7.70;;;3.70;;
76896;SDS011;65856;52.178;21.176;2023-06-22T11:16:39;6.80;;;3.60;;
76896;SDS011;65856;52.178;21.176;2023-06-22T11:19:05;4.80;;;3.40;;
76896;SDS011;65856;52.178;21.176;2023-06-22T11:21:31;8.50;;;3.60;;
76896;SDS011;65856;52.178;21.176;2023-06-22T11:23:58;3.90;;;3.10;;
76896;SDS011;65856;52.178;21.176;2023-06-22T11:26:25;5.20;;;3.20;;
76896;SDS011;65856;52.178;21.176;2023-06-22T11:28:53;4.00;;;3.40;;
76896;SDS011;65856;52.178;21.176;2023-06-22T11:31:19;4.60;;;3.30;;
76896;SDS011;65856;52.178;21.176;2023-06-22T11:33:45;5.40;;;3.20;;
76896;SDS011;65856;52.178;21.176;2023-06-22T11:36:12;5.90;;;3.50;;
76896;SDS011;65856;52.178;21.176;2023-06-22T11:38:37;4.70;;;3.60;;
76896;SDS011;65856;52.178;21.176;2023-06-22T11:41:05;5.30;;;3.60;;
76896;SDS011;65856;52.178;21.176;2023-06-22T11:43:32;4.80;;;3.20;;
76896;SDS011;65856;52.178;21.176;2023-06-22T11:45:57;5.80;;;3.60;;
76896;SDS011;65856;52.178;21.176;2023-06-22T11:48:24;3.80;;;3.40;;
76896;SDS011;65856;52.178;21.176;2023-06-22T11:50:50;5.80;;;3.50;;
76896;SDS011;65856;52.178;21.176;2023-06-22T11:53:16;6.30;;;3.40;;
76896;SDS011;65856;52.178;21.176;2023-06-22T11:55:43;5.50;;;3.80;;
76896;SDS011;65856;52.178;21.176;2023-06-22T11:58:09;5.80;;;3.40;;
76896;SDS011;65856;52.178;21.176;2023-06-22T12:00:34;6.10;;;3.50;;
76896;SDS011;65856;52.178;21.176;2023-06-22T12:03:00;7.70;;;3.70;;
76896;SDS011;65856;52.178;21.176;2023-06-22T12:05:26;7.70;;;3.40;;
76896;SDS011;65856;52.178;21.176;2023-06-22T12:07:55;4.80;;;3.50;;
76896;SDS011;65856;52.178;21.176;2023-06-22T12:10:22;6.30;;;3.30;;
76896;SDS011;65856;52.178;21.176;2023-06-22T12:12:48;4.50;;;3.50;;
76896;SDS011;65856;52.178;21.176;2023-06-22T12:15:13;7.50;;;4.00;;
76896;SDS011;65856;52.178;21.176;2023-06-22T12:17:40;5.60;;;3.50;;
76896;SDS011;65856;52.178;21.176;2023-06-22T12:20:06;6.00;;;3.60;;
76896;SDS011;65856;52.178;21.176;2023-06-22T12:22:33;5.40;;;3.70;;
76896;SDS011;65856;52.178;21.176;2023-06-22T12:25:00;5.30;;;3.70;;
76896;SDS011;65856;52.178;21.176;2023-06-22T12:27:26;4.60;;;3.60;;
76896;SDS011;65856;52.178;21.176;2023-06-22T12:29:52;4.80;;;3.90;;
76896;SDS011;65856;52.178;21.176;2023-06-22T12:32:18;5.30;;;3.70;;
76896;SDS011;65856;52.178;21.176;2023-06-22T12:34:44;5.80;;;3.80;;
76896;SDS011;65856;52.178;21.176;2023-06-22T12:37:10;6.40;;;3.80;;
76896;SDS011;65856;52.178;21.176;2023-06-22T12:39:36;6.30;;;3.90;;
76896;SDS011;65856;52.178;21.176;2023-06-22T12:42:02;6.30;;;3.80;;
76896;SDS011;65856;52.178;21.176;2023-06-22T12:44:28;5.80;;;3.80;;
76896;SDS011;65856;52.178;21.176;2023-06-22T12:46:53;5.70;;;3.70;;
76896;SDS011;65856;52.178;21.176;2023-06-22T12:49:19;4.10;;;3.70;;
76896;SDS011;65856;52.178;21.176;2023-06-22T12:51:45;8.00;;;3.70;;
76896;SDS011;65856;52.178;21.176;2023-06-22T12:54:11;7.90;;;3.70;;
76896;SDS011;65856;52.178;21.176;2023-06-22T12:56:37;6.40;;;3.90;;
76896;SDS011;65856;52.178;21.176;2023-06-22T12:59:06;9.20;;;4.10;;
76896;SDS011;65856;52.178;21.176;2023-06-22T13:01:32;5.70;;;4.00;;
76896;SDS011;65856;52.178;21.176;2023-06-22T13:03:58;6.20;;;3.80;;
76896;SDS011;65856;52.178;21.176;2023-06-22T13:06:24;5.90;;;3.90;;
76896;SDS011;65856;52.178;21.176;2023-06-22T13:08:50;8.70;;;3.80;;
76896;SDS011;65856;52.178;21.176;2023-06-22T13:11:16;4.10;;;3.50;;
76896;SDS011;65856;52.178;21.176;2023-06-22T13:13:43;4.70;;;3.80;;
76896;SDS011;65856;52.178;21.176;2023-06-22T13:16:10;11.30;;;4.00;;
76896;SDS011;65856;52.178;21.176;2023-06-22T13:18:35;5.30;;;3.70;;
76896;SDS011;65856;52.178;21.176;2023-06-22T13:21:02;4.30;;;3.70;;
76896;SDS011;65856;52.178;21.176;2023-06-22T13:23:28;6.30;;;3.80;;
76896;SDS011;65856;52.178;21.176;2023-06-22T13:25:54;5.00;;;3.80;;
76896;SDS011;65856;52.178;21.176;2023-06-22T13:28:19;6.40;;;3.90;;
76896;SDS011;65856;52.178;21.176;2023-06-22T13:30:46;5.80;;;3.80;;
76896;SDS011;65856;52.178;21.176;2023-06-22T13:33:13;5.60;;;3.90;;
76896;SDS011;65856;52.178;21.176;2023-06-22T13:35:39;8.60;;;4.00;;
76896;SDS011;65856;52.178;21.176;2023-06-22T13:38:07;6.10;;;3.80;;
76896;SDS011;65856;52.178;21.176;2023-06-22T13:40:34;4.70;;;3.70;;
76896;SDS011;65856;52.178;21.176;2023-06-22T13:43:00;6.60;;;4.00;;
76896;SDS011;65856;52.178;21.176;2023-06-22T13:45:26;4.40;;;3.90;;
76896;SDS011;65856;52.178;21.176;2023-06-22T13:47:52;4.90;;;4.10;;
76896;SDS011;65856;52.178;21.176;2023-06-22T13:50:17;4.20;;;3.80;;
76896;SDS011;65856;52.178;21.176;2023-06-22T13:52:43;4.40;;;3.90;;
76896;SDS011;65856;52.178;21.176;2023-06-22T13:55:09;9.10;;;4.00;;
76896;SDS011;65856;52.178;21.176;2023-06-22T13:57:35;3.90;;;3.40;;
76896;SDS011;65856;52.178;21.176;2023-06-22T14:00:01;5.70;;;3.00;;
76896;SDS011;65856;52.178;21.176;2023-06-22T14:02:30;6.70;;;3.60;;
76896;SDS011;65856;52.178;21.176;2023-06-22T14:04:55;5.00;;;3.80;;
76896;SDS011;65856;52.178;21.176;2023-06-22T14:07:21;7.20;;;4.20;;
76896;SDS011;65856;52.178;21.176;2023-06-22T14:09:47;5.90;;;4.00;;
76896;SDS011;65856;52.178;21.176;2023-06-22T14:12:12;7.00;;;3.80;;
76896;SDS011;65856;52.178;21.176;2023-06-22T14:14:38;4.10;;;3.60;;
76896;SDS011;65856;52.178;21.176;2023-06-22T14:17:04;5.40;;;3.90;;
76896;SDS011;65856;52.178;21.176;2023-06-22T14:19:30;4.70;;;3.70;;
76896;SDS011;65856;52.178;21.176;2023-06-22T14:21:56;4.90;;;3.80;;
76896;SDS011;65856;52.178;21.176;2023-06-22T14:24:24;4.80;;;4.00;;
76896;SDS011;65856;52.178;21.176;2023-06-22T14:26:49;6.30;;;3.80;;
76896;SDS011;65856;52.178;21.176;2023-06-22T14:29:15;5.40;;;4.10;;
76896;SDS011;65856;52.178;21.176;2023-06-22T14:31:40;4.60;;;4.00;;